createdAt,value
2023-03-11T00:01:46.088Z,-0.20
2023-03-11T00:04:33.259Z,-0.20
2023-03-11T00:07:20.177Z,-0.20
2023-03-11T00:10:09.112Z,-0.20
2023-03-11T00:12:57.613Z,-0.20
2023-03-11T00:15:47.090Z,-0.30
2023-03-11T00:18:34.434Z,-0.30
2023-03-11T00:21:21.863Z,-0.30
2023-03-11T00:24:09.450Z,-0.30
2023-03-11T00:26:56.644Z,-0.30
2023-03-11T00:29:44.633Z,-0.20
2023-03-11T00:32:31.641Z,-0.30
2023-03-11T00:35:21.081Z,-0.20
2023-03-11T00:38:10.170Z,-0.40
2023-03-11T00:40:57.912Z,-0.10
2023-03-11T00:43:45.534Z,-0.40
2023-03-11T00:46:38.324Z,-0.50
2023-03-11T00:49:28.592Z,-0.30
2023-03-11T00:52:16.399Z,-0.50
2023-03-11T00:55:05.439Z,-0.40
2023-03-11T00:58:00.221Z,-0.30
2023-03-11T01:00:51.424Z,-0.50
2023-03-11T01:03:43.665Z,-0.40
2023-03-11T01:06:44.855Z,-0.40
2023-03-11T01:09:32.979Z,-0.10
2023-03-11T01:12:24.115Z,-0.40
2023-03-11T01:15:19.469Z,-0.40
2023-03-11T01:18:08.232Z,-0.50
2023-03-11T01:21:00.779Z,-0.60
2023-03-11T01:23:48.306Z,-0.40
2023-03-11T01:26:37.315Z,-0.60
2023-03-11T01:29:26.902Z,-0.40
2023-03-11T01:32:14.425Z,-0.60
2023-03-11T01:35:03.541Z,-0.60
2023-03-11T01:37:54.226Z,-0.60
2023-03-11T01:40:49.515Z,-0.60
2023-03-11T01:43:51.767Z,-0.60
2023-03-11T01:47:17.543Z,-0.50
2023-03-11T01:50:10.440Z,-0.60
2023-03-11T01:53:01.726Z,-0.70
2023-03-11T01:55:51.643Z,-0.50
2023-03-11T01:58:45.178Z,-0.70
2023-03-11T02:01:32.694Z,-0.60
2023-03-11T02:04:24.984Z,-0.50
2023-03-11T02:07:13.252Z,-0.50
2023-03-11T02:10:02.949Z,-0.60
2023-03-11T02:12:52.338Z,-0.60
2023-03-11T02:15:40.695Z,-0.90
2023-03-11T02:18:30.267Z,-0.80
2023-03-11T02:21:35.175Z,-0.70
2023-03-11T02:24:31.762Z,-0.70
2023-03-11T02:27:25.824Z,-0.80
2023-03-11T02:30:18.889Z,-0.80
2023-03-11T02:33:07.936Z,-0.80
2023-03-11T02:35:57.880Z,-0.90
2023-03-11T02:38:49.275Z,-0.90
2023-03-11T02:41:42.257Z,-0.80
2023-03-11T02:44:31.769Z,-0.80
2023-03-11T02:47:19.646Z,-0.60
2023-03-11T02:50:09.094Z,-1.00
2023-03-11T02:52:58.683Z,-1.00
2023-03-11T02:55:46.570Z,-1.00
2023-03-11T02:58:34.854Z,-1.00
2023-03-11T03:01:26.392Z,-1.00
2023-03-11T03:04:14.307Z,-0.90
2023-03-11T03:07:03.402Z,-1.10
2023-03-11T03:09:51.160Z,-1.00
2023-03-11T03:12:37.958Z,-1.00
2023-03-11T03:15:24.937Z,-1.10
2023-03-11T03:18:13.373Z,-1.10
2023-03-11T03:21:00.684Z,-1.10
2023-03-11T03:23:47.638Z,-1.10
2023-03-11T03:26:34.510Z,-1.10
2023-03-11T03:29:21.792Z,-1.10
2023-03-11T03:32:09.433Z,-1.20
2023-03-11T03:34:59.604Z,-0.90
2023-03-11T03:37:46.634Z,-1.20
2023-03-11T03:40:33.737Z,-1.10
2023-03-11T03:43:21.045Z,-1.10
2023-03-11T03:46:08.361Z,-0.90
2023-03-11T03:48:55.379Z,-1.10
2023-03-11T03:51:43.871Z,-0.90
2023-03-11T03:54:30.565Z,-1.10
2023-03-11T03:57:17.603Z,-1.10
2023-03-11T04:00:05.530Z,-1.20
2023-03-11T04:02:52.317Z,-1.20
2023-03-11T04:05:39.677Z,-1.10
2023-03-11T04:08:27.978Z,-1.10
2023-03-11T04:11:14.949Z,-1.10
2023-03-11T04:14:02.659Z,-1.20
2023-03-11T04:16:49.595Z,-1.20
2023-03-11T04:19:36.383Z,-1.20
2023-03-11T04:22:23.395Z,-1.20
2023-03-11T04:25:11.837Z,-1.10
2023-03-11T04:27:58.915Z,-1.00
2023-03-11T04:30:46.093Z,-1.10
2023-03-11T04:33:33.275Z,-1.10
2023-03-11T04:36:19.924Z,-0.90
2023-03-11T04:39:07.607Z,-1.20
2023-03-11T04:41:55.837Z,-1.10
2023-03-11T04:44:42.597Z,-1.10
2023-03-11T04:47:29.555Z,-1.20
2023-03-11T04:50:16.705Z,-1.30
2023-03-11T04:53:03.615Z,-1.20
2023-03-11T04:55:50.988Z,-1.20
2023-03-11T04:58:39.219Z,-1.10
2023-03-11T05:01:25.964Z,-0.60
2023-03-11T05:04:13.120Z,-1.20
2023-03-11T05:07:00.520Z,-1.20
2023-03-11T05:09:47.845Z,-1.20
2023-03-11T05:12:34.591Z,-1.10
2023-03-11T05:15:23.094Z,-0.90
2023-03-11T05:18:10.075Z,-1.00
2023-03-11T05:20:57.100Z,-1.10
2023-03-11T05:23:44.656Z,-1.00
2023-03-11T05:26:31.463Z,-1.20
2023-03-11T05:29:18.298Z,-1.20
2023-03-11T05:32:06.984Z,-1.20
2023-03-11T05:34:54.015Z,-1.20
2023-03-11T05:37:40.997Z,-1.20
2023-03-11T05:40:28.376Z,-1.20
2023-03-11T05:43:15.585Z,-1.20
2023-03-11T05:46:02.778Z,-1.10
2023-03-11T05:48:51.022Z,-1.20
2023-03-11T05:51:37.703Z,-0.90
2023-03-11T05:54:24.919Z,-0.60
2023-03-11T05:57:11.740Z,-1.00
2023-03-11T05:59:58.651Z,-1.30
2023-03-11T06:02:45.511Z,-1.30
2023-03-11T06:05:34.177Z,-1.20
2023-03-11T06:08:22.049Z,-1.30
2023-03-11T06:11:10.432Z,-1.20
2023-03-11T06:13:59.484Z,-1.20
2023-03-11T06:16:46.876Z,-1.20
2023-03-11T06:19:33.976Z,-1.20
2023-03-11T06:22:22.636Z,-1.20
2023-03-11T06:25:10.516Z,-1.10
2023-03-11T06:27:57.850Z,-1.10
2023-03-11T06:30:44.813Z,-1.10
2023-03-11T06:33:31.638Z,-1.00
2023-03-11T06:36:20.284Z,-1.00
2023-03-11T06:39:09.552Z,-1.10
2023-03-11T06:41:56.649Z,-1.00
2023-03-11T06:44:43.596Z,-0.90
2023-03-11T06:47:30.519Z,-0.90
2023-03-11T06:50:18.051Z,-0.80
2023-03-11T06:53:07.699Z,-0.70
2023-03-11T06:56:04.402Z,-0.60
2023-03-11T06:58:52.099Z,-0.50
2023-03-11T07:01:39.157Z,-0.50
2023-03-11T07:04:26.362Z,-0.40
2023-03-11T07:07:13.568Z,-0.30
2023-03-11T07:10:00.249Z,0.10
2023-03-11T07:12:48.827Z,-0.30
2023-03-11T07:15:36.352Z,-0.40
2023-03-11T07:18:23.477Z,-0.50
2023-03-11T07:21:14.258Z,-0.70
2023-03-11T07:24:07.151Z,-0.70
2023-03-11T07:26:54.046Z,-0.70
2023-03-11T07:29:42.775Z,-0.80
2023-03-11T07:32:30.337Z,-0.50
2023-03-11T07:35:17.800Z,-0.80
2023-03-11T07:38:04.936Z,-0.90
2023-03-11T07:40:59.811Z,-0.80
2023-03-11T07:43:46.742Z,-0.80
2023-03-11T07:46:35.568Z,-0.80
2023-03-11T07:49:22.561Z,-0.60
2023-03-11T07:52:09.441Z,-0.40
2023-03-11T07:54:56.618Z,-0.30
2023-03-11T07:57:43.949Z,-0.40
2023-03-11T08:00:30.781Z,-0.30
2023-03-11T08:03:19.937Z,-0.60
2023-03-11T08:06:17.218Z,-0.60
2023-03-11T08:09:07.004Z,-0.70
2023-03-11T08:11:54.322Z,-0.60
2023-03-11T08:14:43.737Z,-0.60
2023-03-11T08:17:31.399Z,-0.50
2023-03-11T08:20:20.110Z,-0.40
2023-03-11T08:23:07.069Z,-0.40
2023-03-11T08:25:53.825Z,-0.30
2023-03-11T08:28:41.128Z,-0.60
2023-03-11T08:31:30.600Z,-0.50
2023-03-11T08:34:17.930Z,-0.40
2023-03-11T08:37:06.905Z,-0.30
2023-03-11T08:39:54.002Z,-0.10
2023-03-11T08:42:41.070Z,0.10
2023-03-11T08:45:30.126Z,0.20
2023-03-11T08:48:17.513Z,0.50
2023-03-11T08:51:11.504Z,0.60
2023-03-11T08:54:00.326Z,0.90
2023-03-11T08:56:48.080Z,1.60
2023-03-11T08:59:36.254Z,1.80
2023-03-11T09:02:23.784Z,1.80
2023-03-11T09:05:11.576Z,1.90
2023-03-11T09:07:58.626Z,2.30
2023-03-11T09:10:46.828Z,2.90
2023-03-11T09:13:34.128Z,3.90
2023-03-11T09:16:23.185Z,4.70
2023-03-11T09:19:10.745Z,5.00
2023-03-11T09:21:59.951Z,4.40
2023-03-11T09:24:50.271Z,5.50
2023-03-11T09:27:47.112Z,5.60
2023-03-11T09:30:36.079Z,5.60
2023-03-11T09:33:25.598Z,5.10
2023-03-11T09:36:16.291Z,5.60
2023-03-11T09:39:06.882Z,5.80
2023-03-11T09:41:58.744Z,6.50
2023-03-11T09:45:02.699Z,5.60
2023-03-11T09:48:13.248Z,5.10
2023-03-11T09:51:08.620Z,5.00
2023-03-11T09:54:03.346Z,4.10
2023-03-11T09:56:54.633Z,4.70
2023-03-11T09:59:46.283Z,4.80
2023-03-11T10:02:41.941Z,5.70
2023-03-11T10:05:33.721Z,5.40
2023-03-11T10:08:29.809Z,5.10
2023-03-11T10:11:52.048Z,5.10
2023-03-11T10:14:52.904Z,5.90
2023-03-11T10:17:59.292Z,6.00
2023-03-11T10:20:57.888Z,6.30
2023-03-11T10:24:05.964Z,6.40
2023-03-11T10:26:56.900Z,6.20
2023-03-11T10:29:54.373Z,7.10
2023-03-11T10:32:46.875Z,6.70
2023-03-11T10:35:40.748Z,6.30
2023-03-11T10:38:32.494Z,6.00
2023-03-11T10:41:25.196Z,5.80
2023-03-11T10:44:16.823Z,5.40
2023-03-11T10:47:04.855Z,5.80
2023-03-11T10:49:52.823Z,6.50
2023-03-11T10:53:05.035Z,6.50
2023-03-11T10:55:54.360Z,7.60
2023-03-11T10:58:50.665Z,6.50
2023-03-11T11:01:37.740Z,6.90
2023-03-11T11:04:29.834Z,8.50
2023-03-11T11:07:30.310Z,9.00
2023-03-11T11:10:22.297Z,9.90
2023-03-11T11:13:20.775Z,9.40
2023-03-11T11:16:20.457Z,8.10
2023-03-11T11:19:11.753Z,9.20
2023-03-11T11:22:06.196Z,9.80
2023-03-11T11:24:55.332Z,10.60
2023-03-11T11:27:56.146Z,9.80
2023-03-11T11:30:55.357Z,9.20
2023-03-11T11:33:51.977Z,10.80
2023-03-11T11:36:39.753Z,11.30
2023-03-11T11:39:29.253Z,10.90
2023-03-11T11:42:20.075Z,11.70
2023-03-11T11:45:21.069Z,11.40
2023-03-11T11:48:22.571Z,10.90
2023-03-11T11:51:20.714Z,10.80
2023-03-11T11:54:20.061Z,10.20
2023-03-11T11:57:15.961Z,8.90
2023-03-11T12:00:10.573Z,8.60
2023-03-11T12:03:27.107Z,9.00
2023-03-11T12:06:29.076Z,9.50
2023-03-11T12:09:27.581Z,8.30
2023-03-11T12:12:26.889Z,8.40
2023-03-11T12:15:23.583Z,8.80
2023-03-11T12:18:24.255Z,8.80
2023-03-11T12:21:30.548Z,9.30
2023-03-11T12:24:34.314Z,9.30
2023-03-11T12:27:27.345Z,9.20
2023-03-11T12:30:20.485Z,8.30
2023-03-11T12:33:19.650Z,8.40
2023-03-11T12:36:12.097Z,8.30
2023-03-11T12:39:03.835Z,8.70
2023-03-11T12:42:12.048Z,8.90
2023-03-11T12:45:43.314Z,9.30
2023-03-11T12:48:40.823Z,9.00
2023-03-11T12:51:43.603Z,9.40
2023-03-11T12:54:32.744Z,8.90
2023-03-11T12:57:35.836Z,9.00
2023-03-11T13:00:42.150Z,9.40
2023-03-11T13:03:46.183Z,9.50
2023-03-11T13:07:06.771Z,9.50
2023-03-11T13:10:12.024Z,9.30
2023-03-11T13:12:58.859Z,9.10
2023-03-11T13:15:45.724Z,8.70
2023-03-11T13:18:33.257Z,8.70
2023-03-11T13:21:41.975Z,8.50
2023-03-11T13:24:51.134Z,8.60
2023-03-11T13:27:45.696Z,8.20
2023-03-11T13:30:39.755Z,8.40
2023-03-11T13:33:49.186Z,8.20
2023-03-11T13:37:09.461Z,8.20
2023-03-11T13:40:14.304Z,8.40
2023-03-11T13:43:04.875Z,8.60
2023-03-11T13:45:55.380Z,8.50
2023-03-11T13:48:45.661Z,8.50
2023-03-11T13:51:39.484Z,8.20
2023-03-11T13:54:42.865Z,8.00
2023-03-11T13:57:31.759Z,7.80
2023-03-11T14:00:24.302Z,7.50
2023-03-11T14:03:14.591Z,7.40
2023-03-11T14:06:04.756Z,7.40
2023-03-11T14:08:56.376Z,7.50
2023-03-11T14:11:48.082Z,7.60
2023-03-11T14:14:49.443Z,7.50
2023-03-11T14:17:36.600Z,7.40
2023-03-11T14:20:26.415Z,7.40
2023-03-11T14:23:20.302Z,7.20
2023-03-11T14:26:10.349Z,7.30
2023-03-11T14:29:02.192Z,7.00
2023-03-11T14:31:51.248Z,7.10
2023-03-11T14:34:42.028Z,7.00
2023-03-11T14:37:35.000Z,7.00
2023-03-11T14:40:27.478Z,7.00
2023-03-11T14:43:22.997Z,6.90
2023-03-11T14:46:21.146Z,6.60
2023-03-11T14:49:09.374Z,6.30
2023-03-11T14:52:00.802Z,6.10
2023-03-11T14:54:49.591Z,5.90
2023-03-11T14:57:41.212Z,5.90
2023-03-11T15:00:31.703Z,5.80
2023-03-11T15:03:25.110Z,5.70
2023-03-11T15:06:16.795Z,5.50
2023-03-11T15:09:09.331Z,5.50
2023-03-11T15:11:58.310Z,5.60
2023-03-11T15:14:51.919Z,5.50
2023-03-11T15:17:44.244Z,5.30
2023-03-11T15:20:34.987Z,5.40
2023-03-11T15:23:24.239Z,5.30
2023-03-11T15:26:20.687Z,5.20
2023-03-11T15:29:16.766Z,5.20
2023-03-11T15:32:38.403Z,5.20
2023-03-11T15:35:27.028Z,5.20
2023-03-11T15:38:23.722Z,5.20
2023-03-11T15:41:12.506Z,5.50
2023-03-11T15:44:02.182Z,5.00
2023-03-11T15:46:49.446Z,4.90
2023-03-11T15:49:36.604Z,5.20
2023-03-11T15:52:23.732Z,4.70
2023-03-11T15:55:16.137Z,4.70
2023-03-11T15:58:08.177Z,4.50
2023-03-11T16:00:57.477Z,4.30
2023-03-11T16:03:44.943Z,4.30
2023-03-11T16:06:32.380Z,4.20
2023-03-11T16:09:19.500Z,4.00
2023-03-11T16:12:16.172Z,3.90
2023-03-11T16:15:06.309Z,4.00
2023-03-11T16:17:54.520Z,3.90
2023-03-11T16:20:45.365Z,3.80
2023-03-11T16:23:50.171Z,3.90
2023-03-11T16:26:38.006Z,3.70
2023-03-11T16:29:27.166Z,3.70
2023-03-11T16:32:14.886Z,3.70
2023-03-11T16:35:01.609Z,3.50
2023-03-11T16:37:48.762Z,3.50
2023-03-11T16:40:36.258Z,3.50
2023-03-11T16:43:23.232Z,3.50
2023-03-11T16:46:11.992Z,3.80
2023-03-11T16:48:59.090Z,3.50
2023-03-11T16:51:46.770Z,3.40
2023-03-11T16:54:35.170Z,3.50
2023-03-11T16:57:22.080Z,3.40
2023-03-11T17:00:11.192Z,3.40
2023-03-11T17:02:59.342Z,3.20
2023-03-11T17:05:46.617Z,3.20
2023-03-11T17:08:33.740Z,3.20
2023-03-11T17:11:23.437Z,3.10
2023-03-11T17:14:16.524Z,3.10
2023-03-11T17:17:04.108Z,3.10
2023-03-11T17:19:52.405Z,3.00
2023-03-11T17:22:39.542Z,3.40
2023-03-11T17:25:26.414Z,2.90
2023-03-11T17:28:13.200Z,2.80
2023-03-11T17:31:00.273Z,2.80
2023-03-11T17:33:47.488Z,2.80
2023-03-11T17:36:36.095Z,2.70
2023-03-11T17:39:22.748Z,2.60
2023-03-11T17:42:13.021Z,2.60
2023-03-11T17:45:00.193Z,2.40
2023-03-11T17:47:47.392Z,2.30
2023-03-11T17:50:39.295Z,2.30
2023-03-11T17:53:27.497Z,2.40
2023-03-11T17:56:16.621Z,2.50
2023-03-11T17:59:05.024Z,2.50
2023-03-11T18:01:52.877Z,2.60
2023-03-11T18:04:42.058Z,2.50
2023-03-11T18:07:29.077Z,2.50
2023-03-11T18:10:17.842Z,2.70
2023-03-11T18:13:05.006Z,2.40
2023-03-11T18:15:58.751Z,2.40
2023-03-11T18:18:46.466Z,2.50
2023-03-11T18:21:34.098Z,2.30
2023-03-11T18:24:21.113Z,2.30
2023-03-11T18:27:09.767Z,2.30
2023-03-11T18:29:56.840Z,2.20
2023-03-11T18:32:44.898Z,2.10
2023-03-11T18:35:32.328Z,2.10
2023-03-11T18:38:19.168Z,2.00
2023-03-11T18:41:06.413Z,1.90
2023-03-11T18:43:57.421Z,1.80
2023-03-11T18:46:44.550Z,1.70
2023-03-11T18:49:31.810Z,1.60
2023-03-11T18:52:18.879Z,1.70
2023-03-11T18:55:06.695Z,1.40
2023-03-11T18:57:53.671Z,1.30
2023-03-11T19:00:41.965Z,1.20
2023-03-11T19:03:28.846Z,1.20
2023-03-11T19:06:16.683Z,1.10
2023-03-11T19:09:05.555Z,1.10
2023-03-11T19:11:52.400Z,1.20
2023-03-11T19:14:39.498Z,1.20
2023-03-11T19:17:28.244Z,1.10
2023-03-11T19:20:15.648Z,1.00
2023-03-11T19:23:03.133Z,1.00
2023-03-11T19:26:02.596Z,0.90
2023-03-11T19:28:50.390Z,0.90
2023-03-11T19:31:37.498Z,0.80
2023-03-11T19:34:27.219Z,0.80
2023-03-11T19:37:13.994Z,0.70
2023-03-11T19:40:01.072Z,0.60
2023-03-11T19:42:48.140Z,0.60
2023-03-11T19:45:35.285Z,0.60
2023-03-11T19:48:22.531Z,0.60
2023-03-11T19:51:11.938Z,0.50
2023-03-11T19:53:59.088Z,0.50
2023-03-11T19:56:46.157Z,0.50
2023-03-11T19:59:33.317Z,0.40
2023-03-11T20:02:20.340Z,0.20
2023-03-11T20:05:08.536Z,0.20
2023-03-11T20:07:57.248Z,0.10
2023-03-11T20:10:46.345Z,0.00
2023-03-11T20:13:35.434Z,-0.10
2023-03-11T20:16:22.717Z,-0.10
2023-03-11T20:19:09.637Z,-0.10
2023-03-11T20:21:56.405Z,-0.20
2023-03-11T20:24:44.759Z,-0.10
2023-03-11T20:27:32.210Z,-0.30
2023-03-11T20:30:22.887Z,-0.30
2023-03-11T20:33:10.216Z,-0.30
2023-03-11T20:36:05.805Z,-0.30
2023-03-11T20:38:54.577Z,-0.30
2023-03-11T20:41:43.168Z,-0.40
2023-03-11T20:44:30.622Z,-0.30
2023-03-11T20:47:17.869Z,-0.40
2023-03-11T20:50:05.638Z,-0.50
2023-03-11T20:52:52.693Z,-0.50
2023-03-11T20:55:41.712Z,-0.50
2023-03-11T20:58:30.228Z,-0.50
2023-03-11T21:01:20.114Z,-0.40
2023-03-11T21:04:07.764Z,-0.30
2023-03-11T21:06:55.481Z,-0.40
2023-03-11T21:09:42.644Z,-0.20
2023-03-11T21:12:31.323Z,-0.20
2023-03-11T21:15:19.949Z,-0.20
2023-03-11T21:18:07.481Z,0.20
2023-03-11T21:20:55.758Z,-0.30
2023-03-11T21:23:44.037Z,-0.30
2023-03-11T21:26:31.514Z,-0.20
2023-03-11T21:29:18.716Z,-0.20
2023-03-11T21:32:08.374Z,-0.20
2023-03-11T21:34:57.429Z,-0.20
2023-03-11T21:37:45.971Z,-0.20
2023-03-11T21:40:32.737Z,-0.20
2023-03-11T21:43:20.286Z,-0.10
2023-03-11T21:46:08.966Z,-0.20
2023-03-11T21:48:58.442Z,0.00
2023-03-11T21:51:45.780Z,-0.20
2023-03-11T21:54:32.690Z,-0.20
2023-03-11T21:57:19.750Z,-0.30
2023-03-11T22:00:09.959Z,-0.30
2023-03-11T22:02:57.368Z,-0.40
2023-03-11T22:05:45.710Z,-0.40
2023-03-11T22:08:33.652Z,-0.40
2023-03-11T22:11:21.271Z,-0.40
2023-03-11T22:14:08.087Z,-0.40
2023-03-11T22:16:55.398Z,-0.30
2023-03-11T22:19:42.789Z,-0.30
2023-03-11T22:22:31.266Z,-0.30
2023-03-11T22:25:18.076Z,-0.30
2023-03-11T22:28:05.790Z,-0.40
2023-03-11T22:30:52.873Z,-0.40
2023-03-11T22:33:39.962Z,-0.40
2023-03-11T22:36:27.106Z,-0.40
2023-03-11T22:39:15.619Z,-0.40
2023-03-11T22:42:03.035Z,-0.50
2023-03-11T22:44:51.343Z,-0.40
2023-03-11T22:47:38.303Z,-0.50
2023-03-11T22:50:25.272Z,-0.40
2023-03-11T22:53:13.052Z,-0.60
2023-03-11T22:56:02.179Z,-0.50
2023-03-11T22:58:49.369Z,-0.60
2023-03-11T23:01:36.503Z,-0.60
2023-03-11T23:04:23.534Z,-0.60
2023-03-11T23:07:10.459Z,-0.70
2023-03-11T23:09:58.000Z,-0.20
2023-03-11T23:12:46.664Z,-0.60
2023-03-11T23:15:33.262Z,-0.70
2023-03-11T23:18:20.070Z,-0.70
2023-03-11T23:21:14.789Z,-0.50
2023-03-11T23:24:05.136Z,-0.70
2023-03-11T23:26:52.301Z,-0.70
2023-03-11T23:29:40.771Z,-0.70
2023-03-11T23:32:27.833Z,-0.60
2023-03-11T23:35:14.918Z,-0.50
2023-03-11T23:38:01.977Z,-0.50
2023-03-11T23:40:48.710Z,-0.70
2023-03-11T23:43:35.763Z,-0.50
2023-03-11T23:46:24.612Z,-0.60
2023-03-11T23:49:11.551Z,-0.60
2023-03-11T23:51:58.484Z,-0.50
2023-03-11T23:54:45.561Z,-0.50
2023-03-11T23:57:32.452Z,-0.50
